Details for Air Canada Rouge at CYVR




Go Back


Latest METAR
Local Time

CYVR 221126Z 09007KT 15SM -RA FEW022 BKN042 BKN059 OVC082 14/14 A2978 RMK SC1SC4SC2AC1 SLP087 DENSITY ALT 100FT
22/09/2018, 04:40:49

Description
Results
Air Canada Rouge Logo
Number of Pilots based at CYVR
0 Pilots Based here
Number of Air Canada Rouge Flights Departed from CYVR
0 Flights Departed
Number of Air Canada Rouge Flights Arrived at CYVR
0 Flights Arrived
Number of Air Canada Rouge Schedules Departing from CYVR
11 Schedules
Number of Air Canada Rouge Schedules Arriving at CYVR
14 Schedules
Number of Air Canada Rouge Schedules Departing from CYVR availible today
7 Schedules Today
Number of Air Canada Rouge Schedules Arriving at CYVR availible today
7 Schedules Today
Average Landing Rate at CYVR
-292 fpm
Air Canada Rouge Average Landing Rate at CYVR
0 fpm
Total Fuel Purchased at CYVR by Air Canada Rouge
0.00 kgs / 0.00 lbs

Pilots Based at CYVR


Pilot ID
Pilot Name
Pilot Rank
No. of Flights
No. of Flying Hours
There are no pilots assigned to this hub!   Will you be the first?
Content